sensor_id;sensor_type;location;lat;lon;timestamp;temperature;humidity
25024;DHT22;13033;50.936;5.334;2023-03-14T00:01:19;11.50;99.90
25024;DHT22;13033;50.936;5.334;2023-03-14T00:03:48;11.50;99.90
25024;DHT22;13033;50.936;5.334;2023-03-14T00:06:14;11.60;99.90
25024;DHT22;13033;50.936;5.334;2023-03-14T00:08:41;11.60;99.90
25024;DHT22;13033;50.936;5.334;2023-03-14T00:11:12;11.60;99.90
25024;DHT22;13033;50.936;5.334;2023-03-14T00:13:38;11.60;99.90
25024;DHT22;13033;50.936;5.334;2023-03-14T00:16:06;11.60;99.90
25024;DHT22;13033;50.936;5.334;2023-03-14T00:18:32;11.60;99.90
25024;DHT22;13033;50.936;5.334;2023-03-14T00:20:59;11.50;99.90
25024;DHT22;13033;50.936;5.334;2023-03-14T00:23:26;11.50;99.90
25024;DHT22;13033;50.936;5.334;2023-03-14T00:25:52;11.50;99.90
25024;DHT22;13033;50.936;5.334;2023-03-14T00:28:18;11.60;99.90
25024;DHT22;13033;50.936;5.334;2023-03-14T00:30:43;11.60;99.90
25024;DHT22;13033;50.936;5.334;2023-03-14T00:33:09;11.60;99.90
25024;DHT22;13033;50.936;5.334;2023-03-14T00:35:34;11.60;99.90
25024;DHT22;13033;50.936;5.334;2023-03-14T00:38:00;11.50;99.90
25024;DHT22;13033;50.936;5.334;2023-03-14T00:40:26;11.60;99.90
25024;DHT22;13033;50.936;5.334;2023-03-14T00:42:52;11.60;99.90
25024;DHT22;13033;50.936;5.334;2023-03-14T00:45:17;11.50;99.90
25024;DHT22;13033;50.936;5.334;2023-03-14T00:47:43;11.60;99.90
25024;DHT22;13033;50.936;5.334;2023-03-14T00:50:11;11.50;99.90
25024;DHT22;13033;50.936;5.334;2023-03-14T00:52:37;11.70;99.90
25024;DHT22;13033;50.936;5.334;2023-03-14T00:55:03;11.70;99.90
25024;DHT22;13033;50.936;5.334;2023-03-14T00:57:29;11.60;99.90
25024;DHT22;13033;50.936;5.334;2023-03-14T00:59:54;11.60;99.90
25024;DHT22;13033;50.936;5.334;2023-03-14T01:02:20;11.60;99.90
25024;DHT22;13033;50.936;5.334;2023-03-14T01:04:48;11.60;99.90
25024;DHT22;13033;50.936;5.334;2023-03-14T01:07:14;11.60;99.90
25024;DHT22;13033;50.936;5.334;2023-03-14T01:09:39;11.60;99.90
25024;DHT22;13033;50.936;5.334;2023-03-14T01:12:05;11.70;99.90
25024;DHT22;13033;50.936;5.334;2023-03-14T01:14:31;11.60;99.90
25024;DHT22;13033;50.936;5.334;2023-03-14T01:16:57;11.80;99.90
25024;DHT22;13033;50.936;5.334;2023-03-14T01:19:27;11.60;99.90
25024;DHT22;13033;50.936;5.334;2023-03-14T01:21:53;11.60;99.90
25024;DHT22;13033;50.936;5.334;2023-03-14T01:24:19;11.60;99.90
25024;DHT22;13033;50.936;5.334;2023-03-14T01:26:46;11.60;99.90
25024;DHT22;13033;50.936;5.334;2023-03-14T01:29:12;11.70;99.90
25024;DHT22;13033;50.936;5.334;2023-03-14T01:31:38;11.60;99.90
25024;DHT22;13033;50.936;5.334;2023-03-14T01:34:03;11.70;99.90
25024;DHT22;13033;50.936;5.334;2023-03-14T01:36:29;11.50;99.90
25024;DHT22;13033;50.936;5.334;2023-03-14T01:38:55;11.50;99.90
25024;DHT22;13033;50.936;5.334;2023-03-14T01:41:24;11.60;99.90
25024;DHT22;13033;50.936;5.334;2023-03-14T01:43:51;11.60;99.90
25024;DHT22;13033;50.936;5.334;2023-03-14T01:49:28;11.70;99.90
25024;DHT22;13033;50.936;5.334;2023-03-14T01:52:11;11.70;99.90
25024;DHT22;13033;50.936;5.334;2023-03-14T01:54:43;11.60;99.90
25024;DHT22;13033;50.936;5.334;2023-03-14T01:57:13;11.80;99.90
25024;DHT22;13033;50.936;5.334;2023-03-14T01:59:45;11.50;99.90
25024;DHT22;13033;50.936;5.334;2023-03-14T02:02:12;11.50;99.90
25024;DHT22;13033;50.936;5.334;2023-03-14T02:04:40;11.50;99.90
25024;DHT22;13033;50.936;5.334;2023-03-14T02:07:17;11.50;99.90
25024;DHT22;13033;50.936;5.334;2023-03-14T02:09:44;11.50;99.90
25024;DHT22;13033;50.936;5.334;2023-03-14T02:12:12;11.50;99.90
25024;DHT22;13033;50.936;5.334;2023-03-14T02:14:39;11.50;99.90
25024;DHT22;13033;50.936;5.334;2023-03-14T02:17:06;11.50;99.90
25024;DHT22;13033;50.936;5.334;2023-03-14T02:22:26;11.70;99.90
25024;DHT22;13033;50.936;5.334;2023-03-14T02:27:41;11.50;99.90
25024;DHT22;13033;50.936;5.334;2023-03-14T02:30:11;11.40;99.90
25024;DHT22;13033;50.936;5.334;2023-03-14T02:32:39;11.40;99.90
25024;DHT22;13033;50.936;5.334;2023-03-14T02:35:10;11.40;99.90
25024;DHT22;13033;50.936;5.334;2023-03-14T02:37:46;11.30;99.90
25024;DHT22;13033;50.936;5.334;2023-03-14T02:40:13;11.10;99.90
25024;DHT22;13033;50.936;5.334;2023-03-14T02:42:38;11.10;99.90
25024;DHT22;13033;50.936;5.334;2023-03-14T02:47:45;10.70;99.90
25024;DHT22;13033;50.936;5.334;2023-03-14T02:50:19;10.60;99.90
25024;DHT22;13033;50.936;5.334;2023-03-14T02:52:45;10.60;99.90
25024;DHT22;13033;50.936;5.334;2023-03-14T02:55:11;10.60;99.90
25024;DHT22;13033;50.936;5.334;2023-03-14T02:57:36;10.60;99.90
25024;DHT22;13033;50.936;5.334;2023-03-14T03:00:03;10.60;99.90
25024;DHT22;13033;50.936;5.334;2023-03-14T03:02:32;10.50;99.90
25024;DHT22;13033;50.936;5.334;2023-03-14T03:04:58;10.50;99.90
25024;DHT22;13033;50.936;5.334;2023-03-14T03:07:23;10.50;99.90
25024;DHT22;13033;50.936;5.334;2023-03-14T03:09:49;10.40;99.90
25024;DHT22;13033;50.936;5.334;2023-03-14T03:12:15;10.40;99.90
25024;DHT22;13033;50.936;5.334;2023-03-14T03:14:41;10.40;99.90
25024;DHT22;13033;50.936;5.334;2023-03-14T03:17:07;10.30;99.90
25024;DHT22;13033;50.936;5.334;2023-03-14T03:19:33;10.50;99.90
25024;DHT22;13033;50.936;5.334;2023-03-14T03:21:59;10.50;99.90
25024;DHT22;13033;50.936;5.334;2023-03-14T03:24:25;10.50;99.90
25024;DHT22;13033;50.936;5.334;2023-03-14T03:26:51;10.40;99.90
25024;DHT22;13033;50.936;5.334;2023-03-14T03:29:17;10.40;99.90
25024;DHT22;13033;50.936;5.334;2023-03-14T03:31:43;10.50;99.90
25024;DHT22;13033;50.936;5.334;2023-03-14T03:34:11;10.60;99.90
25024;DHT22;13033;50.936;5.334;2023-03-14T03:36:37;10.50;99.90
25024;DHT22;13033;50.936;5.334;2023-03-14T03:39:02;10.30;99.90
25024;DHT22;13033;50.936;5.334;2023-03-14T03:41:29;10.50;99.90
25024;DHT22;13033;50.936;5.334;2023-03-14T03:43:55;10.60;99.90
25024;DHT22;13033;50.936;5.334;2023-03-14T03:46:21;10.80;99.90
25024;DHT22;13033;50.936;5.334;2023-03-14T03:48:47;10.90;99.90
25024;DHT22;13033;50.936;5.334;2023-03-14T03:51:14;10.80;99.90
25024;DHT22;13033;50.936;5.334;2023-03-14T03:53:41;10.60;99.90
25024;DHT22;13033;50.936;5.334;2023-03-14T03:56:07;10.40;99.90
25024;DHT22;13033;50.936;5.334;2023-03-14T03:58:33;10.20;99.90
25024;DHT22;13033;50.936;5.334;2023-03-14T04:00:59;10.20;99.90
25024;DHT22;13033;50.936;5.334;2023-03-14T04:03:24;10.30;99.90
25024;DHT22;13033;50.936;5.334;2023-03-14T04:06:05;10.20;99.90
25024;DHT22;13033;50.936;5.334;2023-03-14T04:08:31;10.10;99.90
25024;DHT22;13033;50.936;5.334;2023-03-14T04:10:58;10.20;99.90
25024;DHT22;13033;50.936;5.334;2023-03-14T04:13:25;10.20;99.90
25024;DHT22;13033;50.936;5.334;2023-03-14T04:15:51;10.30;99.90
25024;DHT22;13033;50.936;5.334;2023-03-14T04:18:17;10.20;99.90
25024;DHT22;13033;50.936;5.334;2023-03-14T04:20:43;10.20;99.90
25024;DHT22;13033;50.936;5.334;2023-03-14T04:23:09;10.20;99.90
25024;DHT22;13033;50.936;5.334;2023-03-14T04:25:34;10.20;99.90
25024;DHT22;13033;50.936;5.334;2023-03-14T04:28:01;10.30;99.90
25024;DHT22;13033;50.936;5.334;2023-03-14T04:30:27;10.20;99.90
25024;DHT22;13033;50.936;5.334;2023-03-14T04:32:52;10.20;99.90
25024;DHT22;13033;50.936;5.334;2023-03-14T04:35:18;10.30;99.90
25024;DHT22;13033;50.936;5.334;2023-03-14T04:37:44;10.40;99.90
25024;DHT22;13033;50.936;5.334;2023-03-14T04:40:10;10.40;99.90
25024;DHT22;13033;50.936;5.334;2023-03-14T04:42:36;10.20;99.90
25024;DHT22;13033;50.936;5.334;2023-03-14T04:45:02;10.30;99.90
25024;DHT22;13033;50.936;5.334;2023-03-14T04:47:28;10.30;99.90
25024;DHT22;13033;50.936;5.334;2023-03-14T04:49:54;10.40;99.90
25024;DHT22;13033;50.936;5.334;2023-03-14T04:52:20;10.30;99.90
25024;DHT22;13033;50.936;5.334;2023-03-14T04:54:45;10.30;99.90
25024;DHT22;13033;50.936;5.334;2023-03-14T04:57:11;10.20;99.90
25024;DHT22;13033;50.936;5.334;2023-03-14T04:59:37;10.30;99.90
25024;DHT22;13033;50.936;5.334;2023-03-14T05:02:02;10.30;99.90
25024;DHT22;13033;50.936;5.334;2023-03-14T05:04:29;10.40;99.90
25024;DHT22;13033;50.936;5.334;2023-03-14T05:06:58;10.40;99.90
25024;DHT22;13033;50.936;5.334;2023-03-14T05:09:23;10.40;99.90
25024;DHT22;13033;50.936;5.334;2023-03-14T05:11:49;10.30;99.90
25024;DHT22;13033;50.936;5.334;2023-03-14T05:14:15;10.30;99.90
25024;DHT22;13033;50.936;5.334;2023-03-14T05:16:40;10.40;99.90
25024;DHT22;13033;50.936;5.334;2023-03-14T05:19:06;10.40;99.90
25024;DHT22;13033;50.936;5.334;2023-03-14T05:21:32;10.40;99.90
25024;DHT22;13033;50.936;5.334;2023-03-14T05:23:57;10.40;99.90
25024;DHT22;13033;50.936;5.334;2023-03-14T05:26:23;10.50;99.90
25024;DHT22;13033;50.936;5.334;2023-03-14T05:28:49;10.40;99.90
25024;DHT22;13033;50.936;5.334;2023-03-14T05:31:14;10.40;99.90
25024;DHT22;13033;50.936;5.334;2023-03-14T05:33:40;10.40;99.90
25024;DHT22;13033;50.936;5.334;2023-03-14T05:36:06;10.30;99.90
25024;DHT22;13033;50.936;5.334;2023-03-14T05:38:32;10.40;99.90
25024;DHT22;13033;50.936;5.334;2023-03-14T05:40:58;10.30;99.90
25024;DHT22;13033;50.936;5.334;2023-03-14T05:43:24;10.30;99.90
25024;DHT22;13033;50.936;5.334;2023-03-14T05:45:49;10.40;99.90
25024;DHT22;13033;50.936;5.334;2023-03-14T05:48:15;10.50;99.90
25024;DHT22;13033;50.936;5.334;2023-03-14T05:50:42;10.40;99.90
25024;DHT22;13033;50.936;5.334;2023-03-14T05:53:08;10.40;99.90
25024;DHT22;13033;50.936;5.334;2023-03-14T05:55:33;10.40;99.90
25024;DHT22;13033;50.936;5.334;2023-03-14T05:57:59;10.40;99.90
25024;DHT22;13033;50.936;5.334;2023-03-14T06:00:25;10.50;99.90
25024;DHT22;13033;50.936;5.334;2023-03-14T06:02:50;10.40;99.90
25024;DHT22;13033;50.936;5.334;2023-03-14T06:05:16;10.60;99.90
25024;DHT22;13033;50.936;5.334;2023-03-14T06:07:42;10.60;99.90
25024;DHT22;13033;50.936;5.334;2023-03-14T06:10:08;10.60;99.90
25024;DHT22;13033;50.936;5.334;2023-03-14T06:12:33;10.60;99.90
25024;DHT22;13033;50.936;5.334;2023-03-14T06:14:59;10.50;99.90
25024;DHT22;13033;50.936;5.334;2023-03-14T06:17:25;10.40;99.90
25024;DHT22;13033;50.936;5.334;2023-03-14T06:19:50;10.40;99.90
25024;DHT22;13033;50.936;5.334;2023-03-14T06:22:16;10.50;99.90
25024;DHT22;13033;50.936;5.334;2023-03-14T06:24:42;10.60;99.90
25024;DHT22;13033;50.936;5.334;2023-03-14T06:27:07;10.60;99.90
25024;DHT22;13033;50.936;5.334;2023-03-14T06:29:33;10.70;99.90
25024;DHT22;13033;50.936;5.334;2023-03-14T06:31:59;10.70;99.90
25024;DHT22;13033;50.936;5.334;2023-03-14T06:34:24;10.80;99.90
25024;DHT22;13033;50.936;5.334;2023-03-14T06:36:50;10.90;99.90
25024;DHT22;13033;50.936;5.334;2023-03-14T06:39:16;11.00;99.90
25024;DHT22;13033;50.936;5.334;2023-03-14T06:41:42;11.10;99.90
25024;DHT22;13033;50.936;5.334;2023-03-14T06:44:07;11.10;99.90
25024;DHT22;13033;50.936;5.334;2023-03-14T06:46:33;11.30;99.90
25024;DHT22;13033;50.936;5.334;2023-03-14T06:48:59;11.30;99.90
25024;DHT22;13033;50.936;5.334;2023-03-14T06:51:24;11.30;99.90
25024;DHT22;13033;50.936;5.334;2023-03-14T06:53:50;11.30;99.90
25024;DHT22;13033;50.936;5.334;2023-03-14T06:56:16;11.20;99.90
25024;DHT22;13033;50.936;5.334;2023-03-14T06:58:41;11.20;99.90
25024;DHT22;13033;50.936;5.334;2023-03-14T07:01:20;11.30;99.90
25024;DHT22;13033;50.936;5.334;2023-03-14T07:03:46;11.30;99.90
25024;DHT22;13033;50.936;5.334;2023-03-14T07:06:12;11.40;99.90
25024;DHT22;13033;50.936;5.334;2023-03-14T07:08:37;11.40;99.90
25024;DHT22;13033;50.936;5.334;2023-03-14T07:11:04;11.40;99.90
25024;DHT22;13033;50.936;5.334;2023-03-14T07:13:30;11.50;99.90
25024;DHT22;13033;50.936;5.334;2023-03-14T07:15:56;11.60;99.90
25024;DHT22;13033;50.936;5.334;2023-03-14T07:18:21;11.60;99.90
25024;DHT22;13033;50.936;5.334;2023-03-14T07:20:47;11.70;99.90
25024;DHT22;13033;50.936;5.334;2023-03-14T07:23:13;11.60;99.90
25024;DHT22;13033;50.936;5.334;2023-03-14T07:25:38;11.40;99.90
25024;DHT22;13033;50.936;5.334;2023-03-14T07:28:04;11.40;99.90
25024;DHT22;13033;50.936;5.334;2023-03-14T07:30:30;11.20;99.90
25024;DHT22;13033;50.936;5.334;2023-03-14T07:32:56;11.00;99.90
25024;DHT22;13033;50.936;5.334;2023-03-14T07:35:21;11.00;99.90
25024;DHT22;13033;50.936;5.334;2023-03-14T07:37:47;10.90;99.90
25024;DHT22;13033;50.936;5.334;2023-03-14T07:40:13;10.90;99.90
25024;DHT22;13033;50.936;5.334;2023-03-14T07:42:41;10.90;99.90
25024;DHT22;13033;50.936;5.334;2023-03-14T07:45:08;11.00;99.90
25024;DHT22;13033;50.936;5.334;2023-03-14T07:47:33;11.00;99.90
25024;DHT22;13033;50.936;5.334;2023-03-14T07:49:59;11.00;99.90
25024;DHT22;13033;50.936;5.334;2023-03-14T07:52:25;10.90;99.90
25024;DHT22;13033;50.936;5.334;2023-03-14T07:54:51;10.90;99.90
25024;DHT22;13033;50.936;5.334;2023-03-14T07:57:16;10.70;99.90
25024;DHT22;13033;50.936;5.334;2023-03-14T07:59:42;9.80;99.90
25024;DHT22;13033;50.936;5.334;2023-03-14T08:02:11;9.30;99.90
25024;DHT22;13033;50.936;5.334;2023-03-14T08:04:38;9.00;99.90
25024;DHT22;13033;50.936;5.334;2023-03-14T08:07:03;8.80;99.90
25024;DHT22;13033;50.936;5.334;2023-03-14T08:09:29;8.80;99.90
25024;DHT22;13033;50.936;5.334;2023-03-14T08:11:55;8.60;99.90
25024;DHT22;13033;50.936;5.334;2023-03-14T08:14:21;8.60;99.90
25024;DHT22;13033;50.936;5.334;2023-03-14T08:16:49;8.50;99.90
25024;DHT22;13033;50.936;5.334;2023-03-14T08:19:16;8.50;99.90
25024;DHT22;13033;50.936;5.334;2023-03-14T08:21:41;8.40;99.90
25024;DHT22;13033;50.936;5.334;2023-03-14T08:24:07;8.40;99.90
25024;DHT22;13033;50.936;5.334;2023-03-14T08:26:33;8.20;99.90
25024;DHT22;13033;50.936;5.334;2023-03-14T08:28:59;8.20;99.90
25024;DHT22;13033;50.936;5.334;2023-03-14T08:31:24;8.10;99.90
25024;DHT22;13033;50.936;5.334;2023-03-14T08:33:50;8.10;99.90
25024;DHT22;13033;50.936;5.334;2023-03-14T08:36:18;8.00;99.90
25024;DHT22;13033;50.936;5.334;2023-03-14T08:38:43;8.00;99.90
25024;DHT22;13033;50.936;5.334;2023-03-14T08:41:09;8.00;99.90
25024;DHT22;13033;50.936;5.334;2023-03-14T08:43:35;8.00;99.90
25024;DHT22;13033;50.936;5.334;2023-03-14T08:46:01;8.00;99.90
25024;DHT22;13033;50.936;5.334;2023-03-14T08:48:28;8.00;99.90
25024;DHT22;13033;50.936;5.334;2023-03-14T08:51:16;8.00;99.90
25024;DHT22;13033;50.936;5.334;2023-03-14T08:53:41;8.00;99.90
25024;DHT22;13033;50.936;5.334;2023-03-14T08:56:07;8.10;99.90
25024;DHT22;13033;50.936;5.334;2023-03-14T08:58:35;8.00;99.90
25024;DHT22;13033;50.936;5.334;2023-03-14T09:01:07;8.00;99.90
25024;DHT22;13033;50.936;5.334;2023-03-14T09:03:33;8.10;99.90
25024;DHT22;13033;50.936;5.334;2023-03-14T09:06:07;8.20;99.90
25024;DHT22;13033;50.936;5.334;2023-03-14T09:08:33;8.40;99.90
25024;DHT22;13033;50.936;5.334;2023-03-14T09:10:59;8.50;99.90
25024;DHT22;13033;50.936;5.334;2023-03-14T09:13:25;8.50;99.90
25024;DHT22;13033;50.936;5.334;2023-03-14T09:15:56;8.50;99.90
25024;DHT22;13033;50.936;5.334;2023-03-14T09:18:22;8.50;99.90
25024;DHT22;13033;50.936;5.334;2023-03-14T09:20:48;8.60;99.90
25024;DHT22;13033;50.936;5.334;2023-03-14T09:23:15;8.60;99.90
25024;DHT22;13033;50.936;5.334;2023-03-14T09:25:41;8.70;99.90
25024;DHT22;13033;50.936;5.334;2023-03-14T09:28:06;8.70;99.90
25024;DHT22;13033;50.936;5.334;2023-03-14T09:30:32;8.70;99.90
25024;DHT22;13033;50.936;5.334;2023-03-14T09:32:58;8.80;99.90
25024;DHT22;13033;50.936;5.334;2023-03-14T09:35:25;8.80;99.90
25024;DHT22;13033;50.936;5.334;2023-03-14T09:37:50;9.00;99.90
25024;DHT22;13033;50.936;5.334;2023-03-14T09:40:18;8.90;99.90
25024;DHT22;13033;50.936;5.334;2023-03-14T09:42:54;8.80;99.90
25024;DHT22;13033;50.936;5.334;2023-03-14T09:45:29;8.90;99.90
25024;DHT22;13033;50.936;5.334;2023-03-14T09:47:57;9.00;99.90
25024;DHT22;13033;50.936;5.334;2023-03-14T09:50:24;9.00;99.90
25024;DHT22;13033;50.936;5.334;2023-03-14T09:52:54;9.00;99.90
25024;DHT22;13033;50.936;5.334;2023-03-14T09:55:22;8.80;99.90
25024;DHT22;13033;50.936;5.334;2023-03-14T09:57:50;8.80;99.90
25024;DHT22;13033;50.936;5.334;2023-03-14T10:00:20;8.80;99.90
25024;DHT22;13033;50.936;5.334;2023-03-14T10:03:15;8.70;99.90
25024;DHT22;13033;50.936;5.334;2023-03-14T10:05:45;8.50;99.90
25024;DHT22;13033;50.936;5.334;2023-03-14T10:08:12;8.40;99.90
25024;DHT22;13033;50.936;5.334;2023-03-14T10:10:38;8.10;99.90
25024;DHT22;13033;50.936;5.334;2023-03-14T10:15:37;7.80;99.90
25024;DHT22;13033;50.936;5.334;2023-03-14T10:18:05;7.80;99.90
25024;DHT22;13033;50.936;5.334;2023-03-14T10:20:39;7.90;99.90
25024;DHT22;13033;50.936;5.334;2023-03-14T10:25:48;8.30;99.90
25024;DHT22;13033;50.936;5.334;2023-03-14T10:28:27;8.30;99.90
25024;DHT22;13033;50.936;5.334;2023-03-14T10:30:55;8.40;99.90
25024;DHT22;13033;50.936;5.334;2023-03-14T10:33:29;8.60;99.90
25024;DHT22;13033;50.936;5.334;2023-03-14T10:36:05;8.60;99.90
25024;DHT22;13033;50.936;5.334;2023-03-14T10:38:34;8.50;99.90
25024;DHT22;13033;50.936;5.334;2023-03-14T10:41:00;8.50;99.90
25024;DHT22;13033;50.936;5.334;2023-03-14T10:43:34;8.40;99.90
25024;DHT22;13033;50.936;5.334;2023-03-14T10:46:06;8.30;99.90
25024;DHT22;13033;50.936;5.334;2023-03-14T10:48:35;8.20;99.90
25024;DHT22;13033;50.936;5.334;2023-03-14T10:53:55;8.00;99.90
25024;DHT22;13033;50.936;5.334;2023-03-14T10:56:23;7.90;99.90
25024;DHT22;13033;50.936;5.334;2023-03-14T10:58:51;7.80;99.90
25024;DHT22;13033;50.936;5.334;2023-03-14T11:01:44;7.70;99.90
25024;DHT22;13033;50.936;5.334;2023-03-14T11:04:29;7.70;99.90
25024;DHT22;13033;50.936;5.334;2023-03-14T11:07:27;7.80;99.90
25024;DHT22;13033;50.936;5.334;2023-03-14T11:10:28;7.80;99.90
25024;DHT22;13033;50.936;5.334;2023-03-14T11:15:58;7.70;99.90
25024;DHT22;13033;50.936;5.334;2023-03-14T11:21:46;7.90;99.90
25024;DHT22;13033;50.936;5.334;2023-03-14T11:27:11;8.30;99.90
25024;DHT22;13033;50.936;5.334;2023-03-14T11:29:53;8.60;99.90
25024;DHT22;13033;50.936;5.334;2023-03-14T11:35:33;8.70;99.90
25024;DHT22;13033;50.936;5.334;2023-03-14T11:38:15;8.80;99.90
25024;DHT22;13033;50.936;5.334;2023-03-14T11:40:42;8.70;99.90
25024;DHT22;13033;50.936;5.334;2023-03-14T11:43:15;8.50;99.90
25024;DHT22;13033;50.936;5.334;2023-03-14T11:45:44;8.20;99.90
25024;DHT22;13033;50.936;5.334;2023-03-14T11:48:28;7.80;99.90
25024;DHT22;13033;50.936;5.334;2023-03-14T11:50:57;7.40;99.90
25024;DHT22;13033;50.936;5.334;2023-03-14T11:54:04;7.40;99.90
25024;DHT22;13033;50.936;5.334;2023-03-14T11:59:15;7.50;99.90
25024;DHT22;13033;50.936;5.334;2023-03-14T12:01:53;7.80;99.90
25024;DHT22;13033;50.936;5.334;2023-03-14T12:04:51;8.20;99.90
25024;DHT22;13033;50.936;5.334;2023-03-14T12:07:28;8.40;99.90
25024;DHT22;13033;50.936;5.334;2023-03-14T12:09:55;8.50;99.90
25024;DHT22;13033;50.936;5.334;2023-03-14T12:12:26;8.70;99.90
25024;DHT22;13033;50.936;5.334;2023-03-14T12:15:01;9.00;99.90
25024;DHT22;13033;50.936;5.334;2023-03-14T12:17:37;9.10;99.90
25024;DHT22;13033;50.936;5.334;2023-03-14T12:20:21;9.10;99.90
25024;DHT22;13033;50.936;5.334;2023-03-14T12:22:55;9.30;99.90
25024;DHT22;13033;50.936;5.334;2023-03-14T12:25:32;9.20;99.90
25024;DHT22;13033;50.936;5.334;2023-03-14T12:28:20;9.00;99.90
25024;DHT22;13033;50.936;5.334;2023-03-14T12:30:46;8.60;99.90
25024;DHT22;13033;50.936;5.334;2023-03-14T12:33:29;7.70;99.90
25024;DHT22;13033;50.936;5.334;2023-03-14T12:36:00;7.40;99.90
25024;DHT22;13033;50.936;5.334;2023-03-14T12:41:27;6.80;99.90
25024;DHT22;13033;50.936;5.334;2023-03-14T12:43:54;6.80;99.90
25024;DHT22;13033;50.936;5.334;2023-03-14T12:46:22;6.90;99.90
25024;DHT22;13033;50.936;5.334;2023-03-14T12:51:33;7.00;99.90
25024;DHT22;13033;50.936;5.334;2023-03-14T12:54:13;6.70;99.90
25024;DHT22;13033;50.936;5.334;2023-03-14T12:59:44;6.60;99.90
25024;DHT22;13033;50.936;5.334;2023-03-14T13:02:29;6.60;99.90
25024;DHT22;13033;50.936;5.334;2023-03-14T13:05:03;6.60;99.90
25024;DHT22;13033;50.936;5.334;2023-03-14T13:10:18;6.80;99.90
25024;DHT22;13033;50.936;5.334;2023-03-14T13:13:03;6.80;99.90
25024;DHT22;13033;50.936;5.334;2023-03-14T13:15:38;6.80;99.90
25024;DHT22;13033;50.936;5.334;2023-03-14T13:21:16;7.20;99.90
25024;DHT22;13033;50.936;5.334;2023-03-14T13:24:03;7.20;99.90
25024;DHT22;13033;50.936;5.334;2023-03-14T13:26:40;7.30;99.90
25024;DHT22;13033;50.936;5.334;2023-03-14T13:29:28;7.40;99.90
25024;DHT22;13033;50.936;5.334;2023-03-14T13:32:01;7.60;99.90
25024;DHT22;13033;50.936;5.334;2023-03-14T13:34:32;7.70;99.90
25024;DHT22;13033;50.936;5.334;2023-03-14T13:36:58;7.80;99.90
25024;DHT22;13033;50.936;5.334;2023-03-14T13:39:26;7.80;99.90
25024;DHT22;13033;50.936;5.334;2023-03-14T13:41:58;7.90;99.90
25024;DHT22;13033;50.936;5.334;2023-03-14T13:44:39;8.00;99.90
25024;DHT22;13033;50.936;5.334;2023-03-14T13:47:11;8.10;99.90
25024;DHT22;13033;50.936;5.334;2023-03-14T13:49:38;8.20;99.90
25024;DHT22;13033;50.936;5.334;2023-03-14T13:52:20;8.20;99.90
25024;DHT22;13033;50.936;5.334;2023-03-14T13:54:46;8.10;99.90
25024;DHT22;13033;50.936;5.334;2023-03-14T13:57:12;8.20;99.90
25024;DHT22;13033;50.936;5.334;2023-03-14T13:59:37;8.30;99.90
25024;DHT22;13033;50.936;5.334;2023-03-14T14:02:12;8.50;99.90
25024;DHT22;13033;50.936;5.334;2023-03-14T14:04:38;8.30;99.90
25024;DHT22;13033;50.936;5.334;2023-03-14T14:07:09;8.20;99.90
25024;DHT22;13033;50.936;5.334;2023-03-14T14:09:39;8.20;99.90
25024;DHT22;13033;50.936;5.334;2023-03-14T14:12:08;8.40;99.90
25024;DHT22;13033;50.936;5.334;2023-03-14T14:14:44;8.40;99.90
25024;DHT22;13033;50.936;5.334;2023-03-14T14:17:17;8.40;99.90
25024;DHT22;13033;50.936;5.334;2023-03-14T14:19:44;8.20;99.90
25024;DHT22;13033;50.936;5.334;2023-03-14T14:22:11;8.10;99.90
25024;DHT22;13033;50.936;5.334;2023-03-14T14:24:38;8.00;99.90
25024;DHT22;13033;50.936;5.334;2023-03-14T14:27:15;7.90;99.90
25024;DHT22;13033;50.936;5.334;2023-03-14T14:29:41;7.80;99.90
25024;DHT22;13033;50.936;5.334;2023-03-14T14:34:45;7.80;99.90
25024;DHT22;13033;50.936;5.334;2023-03-14T14:37:34;7.70;99.90
25024;DHT22;13033;50.936;5.334;2023-03-14T14:40:21;7.60;99.90
25024;DHT22;13033;50.936;5.334;2023-03-14T14:42:48;7.50;99.90
25024;DHT22;13033;50.936;5.334;2023-03-14T14:45:19;7.70;99.90
25024;DHT22;13033;50.936;5.334;2023-03-14T14:48:06;7.60;99.90
25024;DHT22;13033;50.936;5.334;2023-03-14T14:50:50;7.60;99.90
25024;DHT22;13033;50.936;5.334;2023-03-14T14:55:59;8.00;99.90
25024;DHT22;13033;50.936;5.334;2023-03-14T14:58:33;8.20;99.90
25024;DHT22;13033;50.936;5.334;2023-03-14T15:03:43;8.40;99.90
25024;DHT22;13033;50.936;5.334;2023-03-14T15:06:12;8.20;99.90
25024;DHT22;13033;50.936;5.334;2023-03-14T15:08:38;8.00;99.90
25024;DHT22;13033;50.936;5.334;2023-03-14T15:11:04;8.00;99.90
25024;DHT22;13033;50.936;5.334;2023-03-14T15:13:30;8.00;99.90
25024;DHT22;13033;50.936;5.334;2023-03-14T15:15:56;8.00;99.90
25024;DHT22;13033;50.936;5.334;2023-03-14T15:18:25;8.00;99.90
25024;DHT22;13033;50.936;5.334;2023-03-14T15:20:53;8.20;99.90
25024;DHT22;13033;50.936;5.334;2023-03-14T15:23:20;8.20;99.90
25024;DHT22;13033;50.936;5.334;2023-03-14T15:25:46;8.20;99.90
25024;DHT22;13033;50.936;5.334;2023-03-14T15:28:15;8.20;99.90
25024;DHT22;13033;50.936;5.334;2023-03-14T15:30:41;8.10;99.90
25024;DHT22;13033;50.936;5.334;2023-03-14T15:33:07;7.90;99.90
25024;DHT22;13033;50.936;5.334;2023-03-14T15:35:35;7.80;99.90
25024;DHT22;13033;50.936;5.334;2023-03-14T15:38:01;7.70;99.90
25024;DHT22;13033;50.936;5.334;2023-03-14T15:40:27;7.60;99.90
25024;DHT22;13033;50.936;5.334;2023-03-14T15:42:52;7.50;99.90
25024;DHT22;13033;50.936;5.334;2023-03-14T15:45:18;7.50;99.90
25024;DHT22;13033;50.936;5.334;2023-03-14T15:47:44;7.50;99.90
25024;DHT22;13033;50.936;5.334;2023-03-14T15:50:10;7.60;99.90
25024;DHT22;13033;50.936;5.334;2023-03-14T15:52:36;7.70;99.90
25024;DHT22;13033;50.936;5.334;2023-03-14T15:55:02;7.60;99.90
25024;DHT22;13033;50.936;5.334;2023-03-14T15:57:28;7.40;99.90
25024;DHT22;13033;50.936;5.334;2023-03-14T15:59:54;7.40;99.90
25024;DHT22;13033;50.936;5.334;2023-03-14T16:02:20;7.50;99.90
25024;DHT22;13033;50.936;5.334;2023-03-14T16:04:45;7.50;99.90
25024;DHT22;13033;50.936;5.334;2023-03-14T16:07:11;7.60;99.90
25024;DHT22;13033;50.936;5.334;2023-03-14T16:09:37;7.60;99.90
25024;DHT22;13033;50.936;5.334;2023-03-14T16:12:02;7.70;99.90
25024;DHT22;13033;50.936;5.334;2023-03-14T16:14:30;7.90;99.90
25024;DHT22;13033;50.936;5.334;2023-03-14T16:16:56;7.90;99.90
25024;DHT22;13033;50.936;5.334;2023-03-14T16:19:24;8.00;99.90
25024;DHT22;13033;50.936;5.334;2023-03-14T16:21:52;7.90;99.90
25024;DHT22;13033;50.936;5.334;2023-03-14T16:24:18;8.10;99.90
25024;DHT22;13033;50.936;5.334;2023-03-14T16:26:43;8.30;99.90
25024;DHT22;13033;50.936;5.334;2023-03-14T16:29:10;8.30;99.90
25024;DHT22;13033;50.936;5.334;2023-03-14T16:31:36;8.30;99.90
25024;DHT22;13033;50.936;5.334;2023-03-14T16:34:08;8.10;99.90
25024;DHT22;13033;50.936;5.334;2023-03-14T16:36:34;8.00;99.90
25024;DHT22;13033;50.936;5.334;2023-03-14T16:39:00;8.00;99.90
25024;DHT22;13033;50.936;5.334;2023-03-14T16:41:25;7.90;99.90
25024;DHT22;13033;50.936;5.334;2023-03-14T16:43:56;7.90;99.90